createdAt,value
2018-08-09T00:00:22.270Z,989.23
2018-08-09T00:01:22.215Z,989.18
2018-08-09T00:02:22.222Z,989.20
2018-08-09T00:03:22.194Z,989.19
2018-08-09T00:04:22.181Z,989.16
2018-08-09T00:05:22.173Z,989.20
2018-08-09T00:06:22.206Z,989.18
2018-08-09T00:07:22.176Z,989.15
2018-08-09T00:08:22.138Z,989.15
2018-08-09T00:09:22.128Z,989.12
2018-08-09T00:10:22.124Z,989.14
2018-08-09T00:11:22.104Z,989.17
2018-08-09T00:12:22.141Z,989.18
2018-08-09T00:13:22.096Z,989.17
2018-08-09T00:14:22.070Z,989.20
2018-08-09T00:15:22.060Z,989.13
2018-08-09T00:16:22.050Z,989.13
2018-08-09T00:17:22.036Z,989.15
2018-08-09T00:18:22.076Z,989.15
2018-08-09T00:19:22.016Z,989.14
2018-08-09T00:20:22.008Z,989.19
2018-08-09T00:21:21.993Z,989.13
2018-08-09T00:22:21.985Z,989.14
2018-08-09T00:23:21.987Z,989.12
2018-08-09T00:24:21.995Z,989.12
2018-08-09T00:25:21.949Z,989.12
2018-08-09T00:26:21.937Z,989.09
2018-08-09T00:27:21.925Z,989.08
2018-08-09T00:28:21.931Z,989.08
2018-08-09T00:29:21.904Z,989.07
2018-08-09T00:30:21.926Z,989.04
2018-08-09T00:31:21.878Z,989.08
2018-08-09T00:32:21.876Z,989.11
2018-08-09T00:33:21.872Z,989.11
2018-08-09T00:34:21.847Z,989.15
2018-08-09T00:35:21.836Z,989.13
2018-08-09T00:36:21.862Z,989.18
2018-08-09T00:37:21.813Z,989.18
2018-08-09T00:38:21.818Z,989.11
2018-08-09T00:39:21.794Z,989.09
2018-08-09T00:40:21.781Z,989.09
2018-08-09T00:41:21.769Z,989.10
2018-08-09T00:42:21.786Z,989.08
2018-08-09T00:43:21.762Z,989.10
2018-08-09T00:44:21.741Z,989.07
2018-08-09T00:45:21.727Z,989.06
2018-08-09T00:46:21.716Z,989.01
2018-08-09T00:47:21.704Z,989.03
2018-08-09T00:48:21.750Z,988.98
2018-08-09T00:49:21.683Z,988.93
2018-08-09T00:50:21.670Z,988.91
2018-08-09T00:51:21.664Z,988.88
2018-08-09T00:52:21.650Z,988.86
2018-08-09T00:53:21.659Z,988.82
2018-08-09T00:54:21.647Z,988.73
2018-08-09T00:55:21.615Z,988.80
2018-08-09T00:56:21.606Z,988.79
2018-08-09T00:57:21.593Z,988.76
2018-08-09T00:58:21.601Z,988.72
2018-08-09T00:59:21.574Z,988.71
2018-08-09T01:00:21.607Z,988.72
2018-08-09T01:01:21.551Z,988.68
2018-08-09T01:02:21.540Z,988.68
2018-08-09T01:03:21.549Z,988.68
2018-08-09T01:04:21.519Z,988.66
2018-08-09T01:05:21.507Z,988.71
2018-08-09T01:06:21.530Z,988.75
2018-08-09T01:07:21.484Z,988.78
2018-08-09T01:08:21.493Z,988.74
2018-08-09T01:09:21.462Z,988.79
2018-08-09T01:10:21.453Z,988.76
2018-08-09T01:11:21.439Z,988.76
2018-08-09T01:12:21.458Z,988.77
2018-08-09T01:13:21.433Z,988.78
2018-08-09T01:14:21.407Z,988.76
2018-08-09T01:15:21.429Z,988.68
2018-08-09T01:16:21.390Z,988.65
2018-08-09T01:17:21.373Z,988.62
2018-08-09T01:18:21.436Z,988.61
2018-08-09T01:19:21.353Z,988.57
2018-08-09T01:20:21.345Z,988.58
2018-08-09T01:21:21.333Z,988.58
2018-08-09T01:22:21.332Z,988.54
2018-08-09T01:23:21.343Z,988.52
2018-08-09T01:24:21.315Z,988.52
2018-08-09T01:25:21.287Z,988.45
2018-08-09T01:26:21.277Z,988.46
2018-08-09T01:27:21.265Z,988.43
2018-08-09T01:28:21.257Z,988.43
2018-08-09T01:29:21.300Z,988.43
2018-08-09T01:30:21.233Z,988.38
2018-08-09T01:31:21.224Z,988.40
2018-08-09T01:32:21.215Z,988.43
2018-08-09T01:33:21.205Z,988.47
2018-08-09T01:34:21.204Z,988.54
2018-08-09T01:35:21.212Z,988.54
2018-08-09T01:36:21.171Z,988.56
2018-08-09T01:37:21.153Z,988.56
2018-08-09T01:38:21.143Z,988.60
2018-08-09T01:39:21.152Z,988.58
2018-08-09T01:40:21.123Z,988.58
2018-08-09T01:41:21.127Z,988.62
2018-08-09T01:42:21.096Z,988.60
2018-08-09T01:43:21.089Z,988.59
2018-08-09T01:44:21.096Z,988.66
2018-08-09T01:45:21.066Z,988.63
2018-08-09T01:46:21.051Z,988.64
2018-08-09T01:47:21.078Z,988.65
2018-08-09T01:48:21.032Z,988.69
2018-08-09T01:49:21.039Z,988.66
2018-08-09T01:50:21.012Z,988.70
2018-08-09T01:51:20.998Z,988.69
2018-08-09T01:52:20.991Z,988.69
2018-08-09T01:53:21.020Z,988.71
2018-08-09T01:54:20.984Z,988.74
2018-08-09T01:55:20.970Z,988.78
2018-08-09T01:56:20.946Z,988.79
2018-08-09T01:57:20.936Z,988.77
2018-08-09T01:58:20.922Z,988.75
2018-08-09T01:59:20.976Z,988.83
2018-08-09T02:00:20.897Z,988.88
2018-08-09T02:01:20.887Z,988.88
2018-08-09T02:02:20.876Z,988.92
2018-08-09T02:03:20.868Z,988.94
2018-08-09T02:04:20.858Z,988.99
2018-08-09T02:05:20.936Z,989.02
2018-08-09T02:06:20.835Z,989.10
2018-08-09T02:07:20.834Z,989.15
2018-08-09T02:08:20.812Z,989.10
2018-08-09T02:09:20.805Z,989.13
2018-08-09T02:10:20.877Z,989.14
2018-08-09T02:11:20.781Z,989.17
2018-08-09T02:12:20.771Z,989.18
2018-08-09T02:13:20.758Z,989.25
2018-08-09T02:14:20.752Z,989.28
2018-08-09T02:15:20.754Z,989.27
2018-08-09T02:16:20.745Z,989.33
2018-08-09T02:17:20.717Z,989.28
2018-08-09T02:18:20.705Z,989.30
2018-08-09T02:19:20.694Z,989.29
2018-08-09T02:20:20.700Z,989.32
2018-08-09T02:21:20.677Z,989.31
2018-08-09T02:22:20.703Z,989.31
2018-08-09T02:23:20.656Z,989.39
2018-08-09T02:24:20.645Z,989.37
2018-08-09T02:25:20.645Z,989.38
2018-08-09T02:26:20.622Z,989.38
2018-08-09T02:27:20.611Z,989.36
2018-08-09T02:28:20.638Z,989.35
2018-08-09T02:29:20.590Z,989.34
2018-08-09T02:30:20.599Z,989.39
2018-08-09T02:31:20.571Z,989.37
2018-08-09T02:32:20.560Z,989.40
2018-08-09T02:33:20.549Z,989.41
2018-08-09T02:34:20.558Z,989.41
2018-08-09T02:35:20.545Z,989.40
2018-08-09T02:36:20.569Z,989.42
2018-08-09T02:37:20.509Z,989.40
2018-08-09T02:38:20.503Z,989.39
2018-08-09T02:39:20.488Z,989.41
2018-08-09T02:40:20.530Z,989.36
2018-08-09T02:41:20.466Z,989.32
2018-08-09T02:42:20.459Z,989.31
2018-08-09T02:43:20.450Z,989.33
2018-08-09T02:44:20.434Z,989.33
2018-08-09T02:45:20.449Z,989.35
2018-08-09T02:46:20.444Z,989.36
2018-08-09T02:47:20.403Z,989.39
2018-08-09T02:48:20.395Z,989.41
2018-08-09T02:49:20.385Z,989.36
2018-08-09T02:50:20.389Z,989.34
2018-08-09T02:51:20.361Z,989.33
2018-08-09T02:52:20.379Z,989.29
2018-08-09T02:53:20.337Z,989.31
2018-08-09T02:54:20.329Z,989.27
2018-08-09T02:55:20.333Z,989.26
2018-08-09T02:56:20.312Z,989.24
2018-08-09T02:57:20.297Z,989.23
2018-08-09T02:58:20.322Z,989.25
2018-08-09T02:59:20.273Z,989.31
2018-08-09T03:00:20.277Z,989.32
2018-08-09T03:01:20.260Z,989.26
2018-08-09T03:02:20.245Z,989.26
2018-08-09T03:03:20.232Z,989.25
2018-08-09T03:04:20.253Z,989.17
2018-08-09T03:05:20.230Z,989.11
2018-08-09T03:06:20.202Z,989.10
2018-08-09T03:07:20.201Z,989.03
2018-08-09T03:08:20.178Z,989.02
2018-08-09T03:09:20.169Z,989.00
2018-08-09T03:10:20.202Z,988.99
2018-08-09T03:11:20.159Z,989.05
2018-08-09T03:12:20.155Z,988.97
2018-08-09T03:13:20.123Z,988.94
2018-08-09T03:14:20.115Z,988.93
2018-08-09T03:15:20.123Z,988.96
2018-08-09T03:16:20.108Z,989.00
2018-08-09T03:17:20.101Z,988.90
2018-08-09T03:18:20.114Z,988.86
2018-08-09T03:19:20.059Z,988.86
2018-08-09T03:20:20.057Z,988.78
2018-08-09T03:21:20.056Z,988.81
2018-08-09T03:22:20.033Z,988.74
2018-08-09T03:23:20.119Z,988.70
2018-08-09T03:24:20.034Z,988.66
2018-08-09T03:25:20.529Z,988.70
2018-08-09T03:26:20.004Z,988.66
2018-08-09T03:27:19.978Z,988.66
2018-08-09T03:28:19.971Z,988.69
2018-08-09T03:29:19.985Z,988.61
2018-08-09T03:30:19.950Z,988.61
2018-08-09T03:31:19.948Z,988.58
2018-08-09T03:32:19.926Z,988.54
2018-08-09T03:33:19.913Z,988.48
2018-08-09T03:34:19.908Z,988.42
2018-08-09T03:35:19.928Z,988.33
2018-08-09T03:36:19.898Z,988.29
2018-08-09T03:37:19.891Z,988.28
2018-08-09T03:38:19.863Z,988.28
2018-08-09T03:39:19.847Z,988.23
2018-08-09T03:40:19.845Z,988.26
2018-08-09T03:41:19.843Z,988.23
2018-08-09T03:42:19.840Z,988.19
2018-08-09T03:43:19.805Z,988.19
2018-08-09T03:44:19.798Z,988.19
2018-08-09T03:45:19.787Z,988.22
2018-08-09T03:46:19.792Z,988.18
2018-08-09T03:47:19.772Z,988.15
2018-08-09T03:48:19.803Z,988.17
2018-08-09T03:49:19.749Z,988.21
2018-08-09T03:50:19.736Z,988.19
2018-08-09T03:51:19.735Z,988.16
2018-08-09T03:52:19.715Z,988.15
2018-08-09T03:53:19.700Z,988.13
2018-08-09T03:54:19.734Z,988.10
2018-08-09T03:55:19.683Z,988.11
2018-08-09T03:56:19.684Z,988.01
2018-08-09T03:57:19.661Z,987.97
2018-08-09T03:58:19.722Z,987.95
2018-08-09T03:59:19.671Z,987.89
2018-08-09T04:00:19.629Z,987.93
2018-08-09T04:01:19.678Z,987.89
2018-08-09T04:02:19.616Z,987.92
2018-08-09T04:03:19.598Z,987.88
2018-08-09T04:04:19.590Z,987.87
2018-08-09T04:05:19.574Z,987.87
2018-08-09T04:06:19.582Z,987.87
2018-08-09T04:07:19.577Z,987.86
2018-08-09T04:08:19.545Z,987.89
2018-08-09T04:09:19.534Z,987.89
2018-08-09T04:10:19.524Z,987.84
2018-08-09T04:11:19.512Z,987.84
2018-08-09T04:12:19.523Z,987.91
2018-08-09T04:13:19.545Z,987.81
2018-08-09T04:14:19.480Z,987.79
2018-08-09T04:15:19.471Z,987.77
2018-08-09T04:16:19.461Z,987.69
2018-08-09T04:17:19.468Z,987.67
2018-08-09T04:18:19.437Z,987.73
2018-08-09T04:19:19.466Z,987.69
2018-08-09T04:20:19.415Z,987.72
2018-08-09T04:21:19.412Z,987.66
2018-08-09T04:22:19.422Z,987.67
2018-08-09T04:23:19.384Z,987.78
2018-08-09T04:24:19.373Z,987.83
2018-08-09T04:25:19.411Z,987.88
2018-08-09T04:26:19.347Z,987.90
2018-08-09T04:27:19.353Z,987.86
2018-08-09T04:28:19.330Z,987.83
2018-08-09T04:29:19.316Z,987.82
2018-08-09T04:30:19.302Z,987.77
2018-08-09T04:31:19.325Z,987.75
2018-08-09T04:32:19.294Z,987.76
2018-08-09T04:33:19.270Z,987.74
2018-08-09T04:34:19.259Z,987.78
2018-08-09T04:35:19.251Z,987.76
2018-08-09T04:36:19.243Z,987.73
2018-08-09T04:37:19.287Z,987.75
2018-08-09T04:38:19.221Z,987.77
2018-08-09T04:39:19.204Z,987.78
2018-08-09T04:40:19.189Z,987.79
2018-08-09T04:41:19.178Z,987.83
2018-08-09T04:42:19.202Z,987.86
2018-08-09T04:43:19.198Z,987.86
2018-08-09T04:44:19.147Z,987.83
2018-08-09T04:45:19.143Z,987.83
2018-08-09T04:46:19.125Z,987.86
2018-08-09T04:47:19.112Z,987.87
2018-08-09T04:48:19.140Z,987.87
2018-08-09T04:49:19.141Z,987.88
2018-08-09T04:50:19.080Z,987.92
2018-08-09T04:51:19.074Z,987.90
2018-08-09T04:52:19.067Z,987.91
2018-08-09T04:53:19.062Z,987.90
2018-08-09T04:54:19.038Z,987.94
2018-08-09T04:55:19.062Z,987.92
2018-08-09T04:56:19.020Z,987.94
2018-08-09T04:57:19.002Z,987.92
2018-08-09T04:58:19.025Z,987.94
2018-08-09T04:59:18.984Z,987.91
2018-08-09T05:00:18.994Z,987.90
2018-08-09T05:01:18.960Z,987.92
2018-08-09T05:02:18.957Z,987.93
2018-08-09T05:03:18.993Z,987.90
2018-08-09T05:04:18.932Z,987.91
2018-08-09T05:05:18.917Z,987.95
2018-08-09T05:06:18.947Z,987.92
2018-08-09T05:07:18.898Z,987.94
2018-08-09T05:08:18.907Z,987.93
2018-08-09T05:09:18.881Z,988.00
2018-08-09T05:10:18.877Z,987.93
2018-08-09T05:11:18.893Z,987.91
2018-08-09T05:12:18.843Z,987.91
2018-08-09T05:13:18.853Z,987.91
2018-08-09T05:14:18.825Z,987.92
2018-08-09T05:15:18.816Z,987.87
2018-08-09T05:16:18.797Z,987.87
2018-08-09T05:17:18.822Z,987.89
2018-08-09T05:18:18.796Z,987.86
2018-08-09T05:19:18.771Z,987.85
2018-08-09T05:20:18.755Z,987.86
2018-08-09T05:21:18.747Z,987.82
2018-08-09T05:22:18.742Z,987.80
2018-08-09T05:23:18.789Z,987.81
2018-08-09T05:24:18.717Z,987.82
2018-08-09T05:25:18.700Z,987.77
2018-08-09T05:26:18.721Z,987.77
2018-08-09T05:27:18.684Z,987.74
2018-08-09T05:28:18.687Z,987.77
2018-08-09T05:29:18.701Z,987.78
2018-08-09T05:30:18.653Z,987.82
2018-08-09T05:31:18.639Z,987.80
2018-08-09T05:32:18.632Z,987.81
2018-08-09T05:33:18.634Z,987.81
2018-08-09T05:34:18.720Z,987.78
2018-08-09T05:35:18.620Z,987.80
2018-08-09T05:36:18.596Z,987.75
2018-08-09T05:37:18.577Z,987.77
2018-08-09T05:38:18.586Z,987.72
2018-08-09T05:39:18.559Z,987.75
2018-08-09T05:40:18.545Z,987.73
2018-08-09T05:41:18.555Z,987.65
2018-08-09T05:42:18.520Z,987.66
2018-08-09T05:43:18.525Z,987.60
2018-08-09T05:44:18.501Z,987.63
2018-08-09T05:45:18.492Z,987.62
2018-08-09T05:46:18.492Z,987.59
2018-08-09T05:47:18.518Z,987.60
2018-08-09T05:48:18.507Z,987.56
2018-08-09T05:49:18.445Z,987.60
2018-08-09T05:50:18.435Z,987.56
2018-08-09T05:51:18.475Z,987.57
2018-08-09T05:52:18.423Z,987.58
2018-08-09T05:53:18.466Z,987.58
2018-08-09T05:54:18.433Z,987.60
2018-08-09T05:55:18.385Z,987.55
2018-08-09T05:56:18.370Z,987.57
2018-08-09T05:57:18.364Z,987.60
2018-08-09T05:58:18.373Z,987.55
2018-08-09T05:59:18.377Z,987.56
2018-08-09T06:00:18.333Z,987.57
2018-08-09T06:01:18.326Z,987.56
2018-08-09T06:02:18.313Z,987.57
2018-08-09T06:03:18.323Z,987.60
2018-08-09T06:04:18.288Z,987.57
2018-08-09T06:05:18.277Z,987.58
2018-08-09T06:06:18.310Z,987.66
2018-08-09T06:07:18.256Z,987.66
2018-08-09T06:08:18.240Z,987.70
2018-08-09T06:09:18.247Z,987.69
2018-08-09T06:10:18.229Z,987.67
2018-08-09T06:11:18.207Z,987.63
2018-08-09T06:12:18.257Z,987.65
2018-08-09T06:13:18.194Z,987.56
2018-08-09T06:14:18.192Z,987.59
2018-08-09T06:15:18.164Z,987.55
2018-08-09T06:16:18.159Z,987.53
2018-08-09T06:17:18.144Z,987.57
2018-08-09T06:18:18.183Z,987.52
2018-08-09T06:19:18.139Z,987.56
2018-08-09T06:20:18.116Z,987.57
2018-08-09T06:21:18.101Z,987.56
2018-08-09T06:22:18.089Z,987.57
2018-08-09T06:23:18.081Z,987.63
2018-08-09T06:24:18.104Z,987.65
2018-08-09T06:25:18.064Z,987.64
2018-08-09T06:26:18.096Z,987.58
2018-08-09T06:27:18.035Z,987.58
2018-08-09T06:28:18.023Z,987.55
2018-08-09T06:29:18.027Z,987.48
2018-08-09T06:30:18.028Z,987.52
2018-08-09T06:31:17.995Z,987.48
2018-08-09T06:32:18.029Z,987.52
2018-08-09T06:33:17.991Z,987.54
2018-08-09T06:34:17.978Z,987.56
2018-08-09T06:35:17.950Z,987.53
2018-08-09T06:36:17.980Z,987.55
2018-08-09T06:37:17.930Z,987.56
2018-08-09T06:38:17.938Z,987.53
2018-08-09T06:39:17.918Z,987.49
2018-08-09T06:40:17.897Z,987.47
2018-08-09T06:41:17.887Z,987.46
2018-08-09T06:42:17.893Z,987.50
2018-08-09T06:43:17.871Z,987.51
2018-08-09T06:44:17.867Z,987.51
2018-08-09T06:45:17.842Z,987.51
2018-08-09T06:46:17.833Z,987.51
2018-08-09T06:47:17.818Z,987.56
2018-08-09T06:48:17.826Z,987.53
2018-08-09T06:49:17.847Z,987.56
2018-08-09T06:50:17.792Z,987.58
2018-08-09T06:51:17.776Z,987.59
2018-08-09T06:52:17.765Z,987.59
2018-08-09T06:53:17.756Z,987.53
2018-08-09T06:54:17.748Z,987.55
2018-08-09T06:55:17.769Z,987.57
2018-08-09T06:56:17.760Z,987.55
2018-08-09T06:57:17.712Z,987.61
2018-08-09T06:58:17.706Z,987.57
2018-08-09T06:59:17.691Z,987.53
2018-08-09T07:00:17.695Z,987.54
2018-08-09T07:01:17.699Z,987.52
2018-08-09T07:02:17.658Z,987.51
2018-08-09T07:03:17.647Z,987.52
2018-08-09T07:04:17.638Z,987.53
2018-08-09T07:05:17.641Z,987.47
2018-08-09T07:06:17.619Z,987.44
2018-08-09T07:07:17.623Z,987.42
2018-08-09T07:08:17.604Z,987.43
2018-08-09T07:09:17.603Z,987.46
2018-08-09T07:10:17.590Z,987.50
2018-08-09T07:11:17.563Z,987.46
2018-08-09T07:12:17.555Z,987.43
2018-08-09T07:13:17.540Z,987.43
2018-08-09T07:14:17.530Z,987.45
2018-08-09T07:15:17.555Z,987.48
2018-08-09T07:16:17.535Z,987.52
2018-08-09T07:17:17.502Z,987.47
2018-08-09T07:18:17.486Z,987.46
2018-08-09T07:19:17.478Z,987.45
2018-08-09T07:20:17.528Z,987.48
2018-08-09T07:21:17.458Z,987.51
2018-08-09T07:22:17.468Z,987.49
2018-08-09T07:23:17.450Z,987.42
2018-08-09T07:24:17.457Z,987.42
2018-08-09T07:25:17.443Z,987.43
2018-08-09T07:26:17.450Z,987.45
2018-08-09T07:27:17.403Z,987.45
2018-08-09T07:28:17.447Z,987.47
2018-08-09T07:29:17.388Z,987.44
2018-08-09T07:30:17.405Z,987.45
2018-08-09T07:31:17.349Z,987.45
2018-08-09T07:32:17.348Z,987.41
2018-08-09T07:33:17.364Z,987.44
2018-08-09T07:34:17.331Z,987.43
2018-08-09T07:35:17.337Z,987.43
2018-08-09T07:36:17.309Z,987.44
2018-08-09T07:37:17.338Z,987.35
2018-08-09T07:38:17.297Z,987.34
2018-08-09T07:39:17.388Z,987.28
2018-08-09T07:40:17.291Z,987.28
2018-08-09T07:41:17.278Z,987.27
2018-08-09T07:42:17.236Z,987.25
2018-08-09T07:43:17.252Z,987.20
2018-08-09T07:44:17.219Z,987.22
2018-08-09T07:45:17.231Z,987.18
2018-08-09T07:46:17.213Z,987.22
2018-08-09T07:47:17.187Z,987.19
2018-08-09T07:48:17.172Z,987.20
2018-08-09T07:49:17.163Z,987.19
2018-08-09T07:50:17.150Z,987.18
2018-08-09T07:51:17.182Z,987.16
2018-08-09T07:52:17.139Z,987.15
2018-08-09T07:53:17.120Z,987.18
2018-08-09T07:54:17.134Z,987.20
2018-08-09T07:55:17.103Z,987.21
2018-08-09T07:56:17.104Z,987.18
2018-08-09T07:57:17.126Z,987.21
2018-08-09T07:58:17.068Z,987.21
2018-08-09T07:59:17.061Z,987.24
2018-08-09T08:00:17.046Z,987.28
2018-08-09T08:01:17.052Z,987.26
2018-08-09T08:02:17.030Z,987.21
2018-08-09T08:03:17.042Z,987.28
2018-08-09T08:04:17.004Z,987.32
2018-08-09T08:05:16.998Z,987.35
2018-08-09T08:06:16.999Z,987.33
2018-08-09T08:07:16.974Z,987.29
2018-08-09T08:08:16.972Z,987.27
2018-08-09T08:09:16.986Z,987.31
2018-08-09T08:10:16.943Z,987.31
2018-08-09T08:11:16.953Z,987.34
2018-08-09T08:12:16.935Z,987.38
2018-08-09T08:13:11.300Z,987.44
2018-08-09T08:14:11.320Z,987.45
2018-08-09T08:15:11.454Z,987.46
2018-08-09T08:16:11.283Z,987.42
2018-08-09T08:17:11.257Z,987.43
2018-08-09T08:18:11.246Z,987.46
2018-08-09T08:19:11.253Z,987.41
2018-08-09T08:20:11.255Z,987.45
2018-08-09T08:23:32.618Z,987.43
2018-08-09T08:24:32.589Z,987.34
2018-08-09T08:25:32.579Z,987.30
2018-08-09T08:26:32.583Z,987.27
2018-08-09T08:27:32.559Z,987.31
2018-08-09T08:28:32.556Z,987.32
2018-08-09T08:29:32.564Z,987.27
2018-08-09T08:30:32.547Z,987.27
2018-08-09T08:31:32.562Z,987.24
2018-08-09T08:32:32.555Z,987.23
2018-08-09T08:33:32.500Z,987.24
2018-08-09T08:34:32.549Z,987.21
2018-08-09T08:35:32.496Z,987.31
2018-08-09T08:36:32.512Z,987.26
2018-08-09T08:37:32.466Z,987.29
2018-08-09T08:38:32.457Z,987.30
2018-08-09T08:39:32.474Z,987.36
2018-08-09T08:40:32.427Z,987.25
2018-08-09T08:41:32.535Z,987.28
2018-08-09T08:42:32.401Z,987.23
2018-08-09T08:43:32.391Z,987.23
2018-08-09T08:44:32.382Z,987.17
2018-08-09T08:45:32.414Z,987.20
2018-08-09T08:46:32.368Z,987.22
2018-08-09T08:47:32.421Z,987.26
2018-08-09T08:48:32.336Z,987.21
2018-08-09T08:49:32.326Z,987.25
2018-08-09T08:50:32.320Z,987.20
2018-08-09T08:51:32.320Z,987.21
2018-08-09T08:52:32.327Z,987.16
2018-08-09T08:53:32.305Z,987.17
2018-08-09T08:54:32.301Z,987.16
2018-08-09T08:55:32.291Z,987.20
2018-08-09T08:56:32.258Z,987.18
2018-08-09T08:57:32.259Z,987.14
2018-08-09T08:58:32.242Z,987.12
2018-08-09T08:59:32.238Z,987.13
2018-08-09T09:00:32.210Z,987.10
2018-08-09T09:01:32.221Z,987.12
2018-08-09T09:02:32.242Z,987.11
2018-08-09T09:03:32.201Z,987.14
2018-08-09T09:04:32.215Z,987.14
2018-08-09T09:05:32.159Z,987.09
2018-08-09T09:06:32.149Z,987.05
2018-08-09T09:07:32.154Z,987.04
2018-08-09T09:08:32.135Z,986.99
2018-08-09T09:09:32.117Z,987.03
2018-08-09T09:10:32.146Z,986.97
2018-08-09T09:11:32.098Z,987.03
2018-08-09T09:12:32.103Z,986.97
2018-08-09T09:13:32.076Z,986.96
2018-08-09T09:14:32.071Z,986.93
2018-08-09T09:15:32.058Z,986.89
2018-08-09T09:16:32.061Z,986.91
2018-08-09T09:17:32.112Z,986.85
2018-08-09T09:18:32.030Z,986.85
2018-08-09T09:19:32.028Z,986.87
2018-08-09T09:20:32.015Z,986.85
2018-08-09T09:21:32.029Z,986.83
2018-08-09T09:22:32.030Z,986.88
2018-08-09T09:23:31.976Z,986.92
2018-08-09T09:24:31.977Z,986.89
2018-08-09T09:25:32.212Z,986.88
2018-08-09T09:26:31.946Z,986.89
2018-08-09T09:27:31.958Z,986.82
2018-08-09T09:28:31.950Z,986.84
2018-08-09T09:29:31.928Z,986.82
2018-08-09T09:30:31.911Z,986.80
2018-08-09T09:31:31.921Z,986.77
2018-08-09T09:32:31.896Z,986.79
2018-08-09T09:33:31.889Z,986.74
2018-08-09T09:34:31.888Z,986.75
2018-08-09T09:35:31.852Z,986.77
2018-08-09T09:36:31.843Z,986.68
2018-08-09T09:42:41.471Z,986.61
2018-08-09T09:43:08.685Z,986.64
2018-08-09T09:44:08.662Z,986.65
2018-08-09T09:45:08.649Z,986.65
2018-08-09T09:46:08.659Z,986.63
2018-08-09T09:47:08.644Z,986.67
2018-08-09T09:48:08.641Z,986.62
2018-08-09T09:49:08.653Z,986.58
2018-08-09T09:50:08.612Z,986.49
2018-08-09T09:51:08.589Z,986.55
2018-08-09T09:52:08.608Z,986.55
2018-08-09T09:53:08.607Z,986.53
2018-08-09T09:54:08.618Z,986.54
2018-08-09T09:55:08.593Z,986.47
2018-08-09T09:56:08.550Z,986.51
2018-08-09T09:57:08.537Z,986.49
2018-08-09T09:58:08.535Z,986.46
2018-08-09T09:59:08.528Z,986.39
2018-08-09T10:00:08.564Z,986.40
2018-08-09T10:01:08.501Z,986.38
2018-08-09T10:02:08.495Z,986.39
2018-08-09T10:03:08.472Z,986.34
2018-08-09T10:04:08.526Z,986.32
2018-08-09T10:05:08.459Z,986.34
2018-08-09T10:06:08.452Z,986.34
2018-08-09T10:07:08.529Z,986.28
2018-08-09T10:08:08.422Z,986.33
2018-08-09T10:09:08.460Z,986.31
2018-08-09T10:10:08.424Z,986.27
2018-08-09T10:11:08.403Z,986.27
2018-08-09T10:12:08.424Z,986.22
2018-08-09T10:13:08.423Z,986.20
2018-08-09T10:14:08.416Z,986.18
2018-08-09T10:15:08.378Z,986.17
2018-08-09T10:16:08.371Z,986.10
2018-08-09T10:17:08.359Z,986.12
2018-08-09T10:18:08.340Z,986.09
2018-08-09T10:19:08.334Z,986.13
2018-08-09T10:20:08.307Z,986.09
2018-08-09T10:21:08.321Z,986.15
2018-08-09T10:22:08.293Z,986.10
2018-08-09T10:23:08.277Z,986.08
2018-08-09T10:24:08.287Z,986.01
2018-08-09T10:25:08.259Z,985.98
2018-08-09T10:26:08.262Z,985.93
2018-08-09T10:27:08.243Z,985.90
2018-08-09T10:28:08.274Z,985.94
2018-08-09T10:29:08.251Z,985.92
2018-08-09T10:30:08.215Z,985.90
2018-08-09T10:31:08.265Z,985.96
2018-08-09T10:32:08.233Z,985.86
2018-08-09T10:33:08.188Z,985.98
2018-08-09T10:34:08.198Z,985.90
2018-08-09T10:35:08.174Z,986.00
2018-08-09T10:36:08.193Z,986.04
2018-08-09T10:37:08.152Z,986.07
2018-08-09T10:38:08.138Z,985.96
2018-08-09T10:39:08.144Z,986.09
2018-08-09T10:40:08.315Z,985.85
2018-08-09T10:41:08.117Z,986.10
2018-08-09T10:42:08.140Z,986.13
2018-08-09T10:43:08.090Z,986.07
2018-08-09T10:44:08.130Z,986.02
2018-08-09T10:45:08.069Z,986.05
2018-08-09T10:46:08.065Z,985.77
2018-08-09T10:47:08.075Z,985.82
2018-08-09T10:48:08.070Z,986.04
2018-08-09T10:49:08.093Z,985.92
2018-08-09T10:50:08.030Z,985.81
2018-08-09T10:51:08.015Z,985.85
2018-08-09T10:52:08.008Z,986.09
2018-08-09T10:53:08.150Z,985.83
2018-08-09T10:54:08.005Z,986.02
2018-08-09T10:55:08.025Z,986.14
2018-08-09T10:56:07.988Z,986.05
2018-08-09T10:57:07.962Z,986.18
2018-08-09T10:58:07.977Z,986.13
2018-08-09T10:59:07.967Z,986.08
2018-08-09T11:00:07.943Z,986.08
2018-08-09T11:01:07.923Z,986.07
2018-08-09T11:02:07.937Z,986.05
2018-08-09T11:03:07.908Z,986.08
2018-08-09T11:04:07.901Z,986.07
2018-08-09T11:05:07.936Z,986.00
2018-08-09T11:06:07.875Z,985.75
2018-08-09T11:07:07.895Z,985.77
2018-08-09T11:08:07.856Z,985.83
2018-08-09T11:09:07.849Z,985.87
2018-08-09T11:10:07.857Z,986.00
2018-08-09T11:11:07.840Z,986.00
2018-08-09T11:12:07.830Z,985.95
2018-08-09T11:13:07.920Z,986.01
2018-08-09T11:14:07.831Z,986.05
2018-08-09T11:15:07.882Z,986.07
2018-08-09T11:16:07.858Z,986.10
2018-08-09T11:17:07.838Z,986.19
2018-08-09T11:18:07.779Z,986.21
2018-08-09T11:19:07.775Z,986.23
2018-08-09T11:20:07.791Z,986.24
2018-08-09T11:21:07.758Z,986.21
2018-08-09T11:22:07.735Z,986.25
2018-08-09T11:23:07.862Z,986.14
2018-08-09T11:24:07.730Z,986.12
2018-08-09T11:25:07.767Z,986.19
2018-08-09T11:26:07.733Z,986.24
2018-08-09T11:27:07.714Z,986.23
2018-08-09T11:28:07.705Z,986.18
2018-08-09T11:29:07.669Z,986.14
2018-08-09T11:30:07.719Z,986.15
2018-08-09T11:31:07.681Z,986.21
2018-08-09T11:32:07.645Z,986.34
2018-08-09T11:33:07.687Z,986.38
2018-08-09T11:34:07.698Z,986.30
2018-08-09T11:35:07.636Z,986.35
2018-08-09T11:36:07.602Z,986.29
2018-08-09T11:37:07.602Z,986.34
2018-08-09T11:38:07.588Z,986.35
2018-08-09T11:39:07.625Z,986.33
2018-08-09T11:40:07.562Z,986.35
2018-08-09T11:41:07.578Z,986.39
2018-08-09T11:42:07.547Z,986.32
2018-08-09T11:43:07.577Z,986.37
2018-08-09T11:44:07.541Z,986.47
2018-08-09T11:45:07.521Z,986.50
2018-08-09T11:46:07.533Z,986.51
2018-08-09T11:47:07.512Z,986.58
2018-08-09T11:48:07.492Z,986.59
2018-08-09T11:49:07.495Z,986.66
2018-08-09T11:50:07.491Z,986.66
2018-08-09T11:51:07.508Z,986.70
2018-08-09T11:52:07.456Z,986.72
2018-08-09T11:53:07.441Z,986.73
2018-08-09T11:54:07.438Z,986.77
2018-08-09T11:55:07.421Z,986.81
2018-08-09T11:56:07.460Z,987.26
2018-08-09T11:57:07.460Z,987.47
2018-08-09T11:58:07.433Z,987.65
2018-08-09T11:59:07.493Z,987.91
2018-08-09T12:00:07.368Z,987.91
2018-08-09T12:01:07.383Z,988.37
2018-08-09T12:02:07.414Z,988.34
2018-08-09T12:03:07.335Z,988.40
2018-08-09T12:04:07.421Z,988.70
2018-08-09T12:05:07.327Z,988.80
2018-08-09T12:06:07.351Z,988.78
2018-08-09T12:07:07.343Z,988.87
2018-08-09T12:08:07.309Z,989.32
2018-08-09T12:09:07.274Z,989.34
2018-08-09T12:10:07.266Z,989.32
2018-08-09T12:11:07.301Z,989.42
2018-08-09T12:12:07.242Z,989.57
2018-08-09T12:13:07.229Z,989.62
2018-08-09T12:14:07.221Z,989.66
2018-08-09T12:15:07.256Z,989.83
2018-08-09T12:16:07.226Z,989.94
2018-08-09T12:17:07.206Z,989.95
2018-08-09T12:18:07.251Z,989.93
2018-08-09T12:19:07.180Z,990.00
2018-08-09T12:20:07.188Z,989.89
2018-08-09T12:21:07.244Z,989.93
2018-08-09T12:22:07.398Z,989.95
2018-08-09T12:23:07.129Z,989.93
2018-08-09T12:24:07.357Z,989.93
2018-08-09T12:25:07.122Z,989.86
2018-08-09T12:26:07.138Z,989.86
2018-08-09T12:27:07.087Z,989.79
2018-08-09T14:40:48.693Z,989.60
2018-08-09T14:41:48.714Z,989.73
2018-08-09T14:42:48.730Z,989.72
2018-08-09T14:43:48.663Z,989.73
2018-08-09T14:44:48.675Z,989.71
2018-08-09T14:45:48.699Z,989.58
2018-08-09T14:46:48.617Z,989.52
2018-08-09T14:47:48.608Z,989.60